Terminal Aerodrome Forecast
Issued by NWS

Home | Current Version | Previous Version | Text Only | Print | Product List | Glossary On
Versions: 1 2 3 4 5 6 7 8 9 10 11 12 13 14 15 16 17 18 19
953
FTUS43 KABR 261928 AAA
TAFPIR
TAF AMD
KPIR 261928Z 2619/2718 29012G17KT P6SM SCT060
     FM270700 21005KT P6SM SCT150
     FM271200 15005KT P6SM SCT150=

USA.gov is the U.S. government's official web portal to all federal, state and local government web resources and services.